METAR Data
IDs: Format: Raw Decoded Include TAF

Data at: 0338 UTC 03 Jul 2022

METAR for:KSPB (Scappoose Ind Airpar, OR, US)
Text:KSPB 030253Z AUTO 30010G16KT 10SM CLR 19/11 A2991 RMK AO2 SLP129 T01890111 53001
Temperature: 18.9°C ( 66°F)
Dewpoint: 11.1°C ( 52°F) [RH = 61%]
Pressure (altimeter):29.91 inches Hg (1013.0 mb) [Sea level pressure: 1012.9 mb]
Winds:from the WNW (300 degrees) at 12 MPH (10 knots; 5.1 m/s) gusting to 18 MPH (16 knots; 8.2 m/s)
Visibility:10 or more sm (16+ km)
Ceiling:at least 12,000 feet AGL
Clouds:sky clear below 12,000 feet AGL
QC Flag:automated observation with no human augmentation